createdAt,value
2019-03-30T00:00:27.684Z,8.80
2019-03-30T00:02:56.322Z,6.07
2019-03-30T00:05:24.353Z,7.50
2019-03-30T00:07:52.705Z,7.70
2019-03-30T00:10:20.645Z,5.50
2019-03-30T00:12:49.009Z,9.77
2019-03-30T00:15:17.492Z,6.57
2019-03-30T00:17:45.859Z,8.23
2019-03-30T00:20:14.267Z,6.90
2019-03-30T00:22:42.412Z,6.60
2019-03-30T00:25:10.628Z,5.80
2019-03-30T00:27:39.552Z,7.07
2019-03-30T00:30:09.435Z,7.07
2019-03-30T00:32:39.761Z,7.57
2019-03-30T00:35:14.713Z,7.43
2019-03-30T00:38:01.523Z,10.63
2019-03-30T00:40:29.974Z,7.90
2019-03-30T00:42:58.299Z,8.17
2019-03-30T00:45:26.334Z,8.93
2019-03-30T00:47:54.790Z,12.93
2019-03-30T00:50:22.884Z,6.60
2019-03-30T00:52:51.315Z,7.03
2019-03-30T00:55:19.856Z,8.57
2019-03-30T00:57:47.720Z,8.07
2019-03-30T01:00:16.332Z,7.83
2019-03-30T01:02:44.517Z,8.27
2019-03-30T01:05:12.421Z,6.63
2019-03-30T01:07:40.651Z,7.27
2019-03-30T01:10:09.283Z,6.90
2019-03-30T01:12:37.379Z,7.40
2019-03-30T01:15:07.151Z,9.60
2019-03-30T01:17:35.767Z,8.03
2019-03-30T01:20:04.765Z,8.00
2019-03-30T01:22:32.887Z,9.00
2019-03-30T01:25:01.019Z,9.27
2019-03-30T01:27:29.340Z,6.97
2019-03-30T01:29:57.373Z,8.00
2019-03-30T01:32:25.333Z,12.80
2019-03-30T01:34:53.704Z,7.20
2019-03-30T01:37:22.604Z,6.97
2019-03-30T01:39:50.678Z,8.37
2019-03-30T01:42:20.474Z,7.10
2019-03-30T01:44:49.060Z,7.57
2019-03-30T01:47:17.952Z,10.17
2019-03-30T01:49:46.472Z,6.27
2019-03-30T01:52:14.921Z,8.53
2019-03-30T01:54:43.605Z,7.80
2019-03-30T01:57:12.112Z,9.33
2019-03-30T01:59:40.158Z,5.93
2019-03-30T02:02:09.454Z,7.60
2019-03-30T02:04:37.931Z,7.13
2019-03-30T02:07:06.821Z,8.20
2019-03-30T02:09:35.512Z,6.40
2019-03-30T02:12:03.908Z,7.40
2019-03-30T02:14:31.912Z,6.07
2019-03-30T02:17:00.634Z,8.50
2019-03-30T02:19:28.749Z,7.63
2019-03-30T02:21:56.862Z,6.87
2019-03-30T02:24:25.659Z,7.50
2019-03-30T02:26:53.497Z,6.93
2019-03-30T02:29:21.419Z,6.97
2019-03-30T02:31:51.134Z,6.13
2019-03-30T02:34:19.723Z,6.77
2019-03-30T02:36:48.505Z,6.03
2019-03-30T02:39:17.098Z,6.77
2019-03-30T02:41:45.729Z,6.47
2019-03-30T02:44:14.265Z,6.17
2019-03-30T02:46:46.193Z,8.80
2019-03-30T02:49:15.414Z,7.27
2019-03-30T02:51:44.121Z,6.47
2019-03-30T02:54:13.645Z,6.00
2019-03-30T02:56:42.148Z,7.70
2019-03-30T02:59:11.009Z,5.10
2019-03-30T03:01:39.886Z,6.97
2019-03-30T03:04:08.695Z,5.70
2019-03-30T03:06:37.599Z,7.40
2019-03-30T03:09:08.725Z,5.90
2019-03-30T03:11:39.776Z,6.33
2019-03-30T03:14:11.007Z,7.87
2019-03-30T03:16:41.210Z,10.03
2019-03-30T03:19:10.840Z,7.83
2019-03-30T03:21:39.618Z,7.70
2019-03-30T03:24:08.706Z,7.70
2019-03-30T03:26:37.793Z,7.77
2019-03-30T03:29:06.266Z,7.00
2019-03-30T03:31:34.833Z,8.50
2019-03-30T03:34:02.985Z,5.97
2019-03-30T03:36:31.606Z,7.10
2019-03-30T03:39:00.395Z,5.50
2019-03-30T03:41:29.175Z,9.93
2019-03-30T03:43:58.687Z,8.30
2019-03-30T03:46:27.664Z,9.20
2019-03-30T03:48:56.374Z,8.50
2019-03-30T03:51:26.628Z,5.57
2019-03-30T03:53:55.550Z,8.53
2019-03-30T03:56:26.611Z,7.10
2019-03-30T03:58:57.067Z,7.00
2019-03-30T04:01:26.687Z,7.97
2019-03-30T04:03:58.960Z,8.30
2019-03-30T04:06:30.738Z,6.73
2019-03-30T04:09:01.135Z,8.20
2019-03-30T04:11:31.734Z,10.00
2019-03-30T04:14:01.474Z,9.10
2019-03-30T04:16:30.623Z,6.83
2019-03-30T04:18:59.041Z,6.67
2019-03-30T04:21:42.834Z,9.17
2019-03-30T04:23:58.327Z,7.27
2019-03-30T04:26:26.802Z,8.77
2019-03-30T04:28:55.102Z,6.27
2019-03-30T04:31:33.980Z,8.30
2019-03-30T04:34:02.627Z,6.47
2019-03-30T04:36:31.626Z,6.77
2019-03-30T04:39:00.192Z,7.30
2019-03-30T04:41:28.883Z,7.10
2019-03-30T04:43:58.090Z,7.80
2019-03-30T04:46:26.438Z,8.07
2019-03-30T04:48:55.009Z,5.70
2019-03-30T04:51:32.927Z,6.80
2019-03-30T04:54:03.561Z,6.63
2019-03-30T04:56:32.537Z,6.50
2019-03-30T04:59:01.085Z,6.73
2019-03-30T05:01:35.887Z,5.90
2019-03-30T05:04:06.166Z,10.80
2019-03-30T05:06:44.544Z,7.90
2019-03-30T05:09:23.635Z,8.03
2019-03-30T05:11:54.052Z,8.13
2019-03-30T05:14:27.365Z,7.60
2019-03-30T05:16:56.051Z,9.93
2019-03-30T05:19:25.873Z,6.50
2019-03-30T05:21:55.747Z,7.37
2019-03-30T05:24:24.329Z,7.00
2019-03-30T05:26:57.219Z,7.17
2019-03-30T05:29:29.490Z,7.37
2019-03-30T05:31:59.168Z,8.50
2019-03-30T05:34:28.353Z,7.53
2019-03-30T05:37:11.337Z,6.90
2019-03-30T05:39:56.357Z,6.83
2019-03-30T05:42:34.994Z,6.60
2019-03-30T05:45:11.959Z,7.60
2019-03-30T05:47:41.309Z,6.30
2019-03-30T05:50:17.485Z,6.80
2019-03-30T05:52:50.452Z,6.97
2019-03-30T05:55:27.255Z,6.03
2019-03-30T05:57:58.580Z,7.40
2019-03-30T06:00:39.778Z,7.17
2019-03-30T06:03:11.034Z,7.13
2019-03-30T06:05:45.840Z,7.07
2019-03-30T06:08:17.520Z,22.53
2019-03-30T06:10:46.054Z,23.63
2019-03-30T06:13:15.652Z,13.57
2019-03-30T06:15:44.367Z,10.53
2019-03-30T06:18:12.948Z,9.80
2019-03-30T06:20:41.210Z,9.10
2019-03-30T06:23:09.640Z,8.33
2019-03-30T06:25:40.553Z,9.80
2019-03-30T06:28:09.146Z,7.37
2019-03-30T06:30:37.423Z,10.93
2019-03-30T06:33:06.563Z,8.77
2019-03-30T06:35:35.705Z,8.20
2019-03-30T06:38:04.031Z,55.33
2019-03-30T06:40:32.604Z,76.83
2019-03-30T06:43:01.917Z,36.00
2019-03-30T06:45:30.244Z,18.60
2019-03-30T06:47:58.727Z,13.40
2019-03-30T06:50:27.346Z,9.40
2019-03-30T06:52:58.585Z,14.83
2019-03-30T06:55:26.014Z,8.23
2019-03-30T06:57:54.224Z,9.33
2019-03-30T07:00:32.658Z,7.83
2019-03-30T07:03:04.138Z,8.73
2019-03-30T07:05:40.993Z,7.07
2019-03-30T07:08:12.039Z,8.13
2019-03-30T07:10:41.038Z,7.50
2019-03-30T07:13:09.391Z,8.03
2019-03-30T07:15:44.210Z,8.73
2019-03-30T07:18:12.664Z,6.13
2019-03-30T07:20:40.949Z,7.93
2019-03-30T07:23:12.237Z,8.67
2019-03-30T07:25:39.458Z,8.90
2019-03-30T07:28:07.872Z,8.07
2019-03-30T07:30:35.888Z,8.67
2019-03-30T07:33:04.024Z,7.30
2019-03-30T07:35:32.187Z,7.80
2019-03-30T07:38:00.577Z,9.10
2019-03-30T07:40:29.227Z,7.77
2019-03-30T07:43:00.531Z,8.87
2019-03-30T07:45:29.004Z,10.77
2019-03-30T07:47:57.444Z,7.87
2019-03-30T07:50:26.071Z,9.50
2019-03-30T07:52:54.283Z,10.67
2019-03-30T07:55:22.937Z,11.37
2019-03-30T07:57:51.513Z,8.03
2019-03-30T08:00:20.109Z,8.47
2019-03-30T08:02:48.683Z,9.50
2019-03-30T08:05:16.977Z,7.90
2019-03-30T08:07:45.807Z,7.70
2019-03-30T08:10:14.339Z,9.70
2019-03-30T08:12:42.879Z,11.40
2019-03-30T08:15:11.809Z,10.90
2019-03-30T08:17:40.371Z,8.67
2019-03-30T08:20:09.013Z,10.33
2019-03-30T08:22:37.589Z,7.73
2019-03-30T08:25:06.026Z,8.93
2019-03-30T08:27:34.650Z,12.37
2019-03-30T08:30:03.968Z,26.97
2019-03-30T08:32:32.404Z,20.47
2019-03-30T08:35:01.329Z,18.00
2019-03-30T08:37:31.425Z,16.07
2019-03-30T08:40:00.942Z,11.63
2019-03-30T08:42:30.930Z,12.80
2019-03-30T08:44:59.690Z,10.10
2019-03-30T08:47:28.114Z,9.67
2019-03-30T08:49:56.796Z,9.87
2019-03-30T08:52:25.680Z,14.03
2019-03-30T08:54:53.954Z,8.37
2019-03-30T08:57:22.759Z,8.97
2019-03-30T08:59:50.904Z,8.93
2019-03-30T09:02:19.279Z,8.43
2019-03-30T09:04:48.083Z,10.77
2019-03-30T09:07:16.604Z,12.53
2019-03-30T09:09:44.943Z,9.10
2019-03-30T09:12:13.358Z,9.17
2019-03-30T09:14:41.786Z,28.20
2019-03-30T09:17:12.229Z,28.37
2019-03-30T09:19:40.676Z,23.90
2019-03-30T09:22:09.387Z,22.93
2019-03-30T09:24:37.581Z,19.30
2019-03-30T09:27:07.418Z,16.70
2019-03-30T09:29:36.502Z,15.60
2019-03-30T09:32:14.436Z,20.20
2019-03-30T09:34:35.079Z,14.33
2019-03-30T09:37:03.243Z,12.77
2019-03-30T09:39:32.192Z,11.60
2019-03-30T09:42:01.057Z,14.90
2019-03-30T09:44:31.247Z,11.10
2019-03-30T09:46:59.620Z,30.30
2019-03-30T09:49:28.570Z,23.33
2019-03-30T09:51:57.406Z,16.37
2019-03-30T09:54:25.361Z,14.27
2019-03-30T09:56:53.449Z,14.07
2019-03-30T09:59:22.225Z,12.63
2019-03-30T10:01:50.659Z,14.63
2019-03-30T10:04:19.408Z,16.63
2019-03-30T10:06:48.116Z,13.63
2019-03-30T10:09:16.538Z,9.83
2019-03-30T10:11:46.329Z,15.53
2019-03-30T10:14:15.045Z,13.50
2019-03-30T10:16:43.592Z,11.40
2019-03-30T10:19:12.639Z,14.90
2019-03-30T10:21:40.965Z,14.67
2019-03-30T10:24:09.429Z,13.00
2019-03-30T10:26:38.007Z,20.07
2019-03-30T10:29:07.002Z,15.37
2019-03-30T10:31:35.281Z,12.13
2019-03-30T10:34:03.710Z,14.10
2019-03-30T10:36:32.718Z,18.93
2019-03-30T10:39:01.085Z,22.43
2019-03-30T10:41:31.065Z,20.07
2019-03-30T10:43:59.821Z,15.43
2019-03-30T10:46:30.698Z,11.97
2019-03-30T10:48:59.182Z,10.43
2019-03-30T10:51:28.299Z,8.23
2019-03-30T10:53:57.063Z,6.97
2019-03-30T10:56:25.448Z,7.87
2019-03-30T10:58:53.975Z,7.90
2019-03-30T11:01:22.781Z,7.10
2019-03-30T11:03:51.337Z,8.53
2019-03-30T11:06:19.556Z,10.10
2019-03-30T11:08:47.734Z,12.43
2019-03-30T11:11:16.991Z,10.17
2019-03-30T11:13:45.330Z,4.77
2019-03-30T11:16:14.001Z,7.57
2019-03-30T11:18:45.919Z,8.13
2019-03-30T11:21:15.548Z,8.83
2019-03-30T11:23:43.750Z,10.67
2019-03-30T11:26:13.239Z,10.00
2019-03-30T11:28:42.221Z,8.50
2019-03-30T11:31:11.071Z,5.33
2019-03-30T11:33:40.251Z,6.60
2019-03-30T11:36:08.534Z,8.40
2019-03-30T11:38:37.247Z,8.73
2019-03-30T11:41:05.631Z,11.00
2019-03-30T11:43:35.486Z,16.37
2019-03-30T11:46:04.033Z,13.60
2019-03-30T11:48:37.251Z,7.60
2019-03-30T11:51:05.961Z,9.30
2019-03-30T11:53:34.883Z,7.60
2019-03-30T11:56:05.315Z,6.30
2019-03-30T11:58:33.604Z,9.27
2019-03-30T12:01:02.223Z,5.70
2019-03-30T12:03:33.329Z,9.17
2019-03-30T12:06:02.102Z,8.67
2019-03-30T12:08:31.632Z,9.60
2019-03-30T12:11:00.499Z,8.87
2019-03-30T12:13:28.786Z,8.13
2019-03-30T12:15:57.865Z,6.47
2019-03-30T12:18:26.942Z,6.53
2019-03-30T12:20:55.894Z,7.67
2019-03-30T12:23:24.121Z,7.93
2019-03-30T12:25:52.677Z,9.83
2019-03-30T12:28:20.899Z,6.77
2019-03-30T12:30:50.706Z,6.80
2019-03-30T12:33:19.371Z,12.60
2019-03-30T12:35:50.673Z,8.73
2019-03-30T12:38:19.328Z,6.87
2019-03-30T12:40:47.558Z,6.60
2019-03-30T12:43:15.876Z,10.93
2019-03-30T12:45:44.292Z,10.57
2019-03-30T12:48:12.740Z,7.93
2019-03-30T12:50:41.317Z,6.87
2019-03-30T12:53:09.942Z,8.37
2019-03-30T12:55:48.787Z,12.30
2019-03-30T12:58:09.870Z,12.47
2019-03-30T13:00:39.207Z,12.20
2019-03-30T13:03:07.617Z,13.60
2019-03-30T13:05:36.311Z,12.53
2019-03-30T13:08:04.987Z,8.40
2019-03-30T13:10:35.401Z,10.73
2019-03-30T13:13:04.115Z,13.00
2019-03-30T13:15:32.842Z,9.90
2019-03-30T13:18:01.487Z,10.13
2019-03-30T13:20:30.360Z,7.97
2019-03-30T13:22:58.560Z,10.57
2019-03-30T13:25:27.004Z,7.90
2019-03-30T13:27:55.829Z,11.20
2019-03-30T13:30:24.620Z,10.00
2019-03-30T13:32:53.529Z,10.37
2019-03-30T13:35:22.291Z,7.20
2019-03-30T13:37:50.787Z,7.47
2019-03-30T13:40:19.226Z,9.77
2019-03-30T13:42:47.934Z,8.57
2019-03-30T13:45:16.536Z,8.43
2019-03-30T13:47:45.148Z,14.67
2019-03-30T13:50:14.686Z,9.27
2019-03-30T13:52:43.709Z,7.63
2019-03-30T13:55:11.887Z,9.30
2019-03-30T13:57:41.140Z,9.23
2019-03-30T14:00:09.379Z,9.03
2019-03-30T14:02:38.334Z,9.80
2019-03-30T14:05:06.720Z,9.37
2019-03-30T14:07:37.823Z,10.27
2019-03-30T14:10:07.196Z,10.70
2019-03-30T14:12:35.508Z,11.93
2019-03-30T14:15:04.422Z,9.87
2019-03-30T14:17:33.707Z,8.07
2019-03-30T14:20:02.086Z,10.40
2019-03-30T14:22:31.004Z,8.73
2019-03-30T14:24:59.601Z,16.37
2019-03-30T14:27:28.378Z,7.40
2019-03-30T14:29:56.927Z,9.77
2019-03-30T14:32:25.669Z,10.37
2019-03-30T14:34:54.108Z,8.30
2019-03-30T14:37:22.558Z,6.53
2019-03-30T14:39:51.592Z,13.37
2019-03-30T14:42:20.353Z,7.40
2019-03-30T14:44:52.985Z,7.10
2019-03-30T14:47:26.637Z,8.07
2019-03-30T14:49:55.555Z,25.33
2019-03-30T14:52:25.182Z,40.00
2019-03-30T14:54:54.812Z,13.67
2019-03-30T14:57:23.411Z,9.77
2019-03-30T15:00:01.337Z,6.30
2019-03-30T15:02:29.948Z,7.43
2019-03-30T15:05:01.011Z,6.60
2019-03-30T15:07:31.015Z,10.83
2019-03-30T15:10:00.361Z,15.97
2019-03-30T15:12:31.055Z,10.43
2019-03-30T15:15:12.627Z,10.90
2019-03-30T15:17:43.482Z,10.07
2019-03-30T15:20:25.994Z,7.50
2019-03-30T15:23:06.649Z,7.20
2019-03-30T15:26:03.872Z,7.03
2019-03-30T15:28:30.499Z,7.80
2019-03-30T15:31:17.476Z,6.73
2019-03-30T15:33:56.096Z,6.93
2019-03-30T15:36:42.281Z,5.93
2019-03-30T15:39:18.917Z,7.00
2019-03-30T15:42:18.904Z,6.70
2019-03-30T15:44:57.232Z,9.10
2019-03-30T15:47:27.992Z,9.00
2019-03-30T15:50:13.728Z,7.57
2019-03-30T15:52:43.787Z,10.33
2019-03-30T15:55:11.894Z,12.20
2019-03-30T15:58:11.351Z,7.00
2019-03-30T16:00:41.684Z,8.77
2019-03-30T16:03:13.074Z,7.03
2019-03-30T16:05:45.339Z,10.63
2019-03-30T16:08:15.594Z,10.00
2019-03-30T16:10:52.137Z,12.13
2019-03-30T16:13:24.160Z,8.80
2019-03-30T16:16:11.191Z,8.97
2019-03-30T16:18:45.552Z,8.03
2019-03-30T16:21:18.770Z,9.47
2019-03-30T16:24:05.399Z,5.50
2019-03-30T16:27:08.211Z,8.20
2019-03-30T16:29:58.784Z,11.40
2019-03-30T16:32:35.413Z,21.33
2019-03-30T16:35:32.514Z,43.80
2019-03-30T16:38:32.711Z,11.63
2019-03-30T16:41:18.834Z,9.53
2019-03-30T16:44:02.852Z,7.37
2019-03-30T16:46:38.803Z,7.67
2019-03-30T16:49:31.798Z,5.50
2019-03-30T16:52:44.005Z,6.60
2019-03-30T16:55:20.297Z,5.80
2019-03-30T16:57:56.115Z,5.87
2019-03-30T17:00:58.054Z,4.80
2019-03-30T17:03:39.012Z,5.00
2019-03-30T17:06:10.060Z,6.60
2019-03-30T17:08:47.492Z,11.23
2019-03-30T17:11:29.285Z,6.43
2019-03-30T17:14:00.299Z,6.70
2019-03-30T17:16:54.125Z,5.40
2019-03-30T17:19:41.058Z,5.33
2019-03-30T17:22:12.186Z,6.43
2019-03-30T17:24:40.653Z,4.83
2019-03-30T17:27:08.831Z,6.23
2019-03-30T17:29:37.335Z,12.23
2019-03-30T17:32:05.645Z,9.40
2019-03-30T17:34:34.498Z,6.40
2019-03-30T17:37:03.236Z,13.60
2019-03-30T17:39:35.135Z,6.70
2019-03-30T17:42:03.804Z,8.03
2019-03-30T17:44:33.008Z,5.30
2019-03-30T17:47:01.594Z,7.50
2019-03-30T17:49:31.060Z,9.43
2019-03-30T17:51:59.471Z,24.67
2019-03-30T17:54:32.605Z,24.57
2019-03-30T17:57:00.919Z,15.93
2019-03-30T17:59:29.682Z,10.33
2019-03-30T18:01:57.730Z,8.70
2019-03-30T18:04:25.948Z,9.30
2019-03-30T18:06:54.349Z,11.57
2019-03-30T18:09:23.020Z,9.90
2019-03-30T18:11:51.625Z,6.93
2019-03-30T18:14:20.620Z,9.33
2019-03-30T18:16:49.220Z,8.10
2019-03-30T18:19:17.968Z,8.07
2019-03-30T18:21:48.187Z,6.80
2019-03-30T18:24:17.592Z,8.90
2019-03-30T18:26:45.932Z,7.33
2019-03-30T18:29:14.738Z,19.37
2019-03-30T18:31:44.809Z,18.90
2019-03-30T18:34:14.617Z,17.70
2019-03-30T18:36:46.092Z,15.97
2019-03-30T18:39:14.887Z,16.43
2019-03-30T18:41:43.406Z,10.20
2019-03-30T18:44:12.040Z,11.53
2019-03-30T18:46:40.553Z,13.27
2019-03-30T18:49:09.537Z,9.43
2019-03-30T18:51:40.527Z,10.53
2019-03-30T18:54:09.361Z,10.07
2019-03-30T18:56:38.582Z,15.23
2019-03-30T18:59:06.986Z,12.03
2019-03-30T19:01:35.336Z,11.53
2019-03-30T19:04:04.051Z,13.50
2019-03-30T19:06:32.219Z,14.13
2019-03-30T19:09:01.417Z,12.70
2019-03-30T19:11:30.278Z,14.83
2019-03-30T19:13:58.816Z,12.77
2019-03-30T19:16:26.954Z,14.80
2019-03-30T19:18:55.312Z,12.27
2019-03-30T19:21:23.528Z,17.20
2019-03-30T19:23:51.668Z,20.50
2019-03-30T19:26:20.019Z,21.90
2019-03-30T19:28:56.044Z,22.43
2019-03-30T19:31:17.968Z,20.40
2019-03-30T19:33:46.938Z,20.83
2019-03-30T19:36:18.088Z,18.77
2019-03-30T19:38:46.446Z,22.57
2019-03-30T19:41:15.039Z,21.63
2019-03-30T19:43:43.596Z,21.23
2019-03-30T19:46:12.007Z,21.10
2019-03-30T19:48:41.712Z,16.03
2019-03-30T19:51:12.772Z,19.87
2019-03-30T19:53:41.914Z,16.57
2019-03-30T19:56:10.216Z,13.97
2019-03-30T19:58:38.498Z,20.70
2019-03-30T20:01:10.191Z,22.23
2019-03-30T20:03:39.726Z,16.63
2019-03-30T20:06:08.280Z,15.33
2019-03-30T20:08:36.463Z,20.50
2019-03-30T20:11:05.338Z,13.80
2019-03-30T20:13:34.319Z,16.80
2019-03-30T20:16:02.783Z,19.63
2019-03-30T20:18:31.174Z,15.93
2019-03-30T20:20:59.746Z,17.23
2019-03-30T20:23:27.970Z,14.60
2019-03-30T20:25:56.303Z,18.33
2019-03-30T20:28:24.857Z,14.57
2019-03-30T20:30:53.572Z,16.77
2019-03-30T20:33:23.355Z,15.70
2019-03-30T20:35:52.016Z,14.63
2019-03-30T20:38:24.252Z,13.33
2019-03-30T20:40:53.496Z,12.97
2019-03-30T20:43:22.394Z,14.40
2019-03-30T20:45:51.029Z,15.13
2019-03-30T20:48:19.202Z,13.90
2019-03-30T20:50:47.873Z,12.53
2019-03-30T20:53:16.814Z,15.87
2019-03-30T20:55:45.296Z,14.33
2019-03-30T20:58:13.640Z,16.93
2019-03-30T21:00:42.952Z,18.23
2019-03-30T21:03:11.508Z,16.00
2019-03-30T21:05:39.984Z,27.17
2019-03-30T21:08:08.193Z,22.83
2019-03-30T21:10:36.510Z,17.73
2019-03-30T21:13:05.081Z,18.60
2019-03-30T21:15:33.626Z,18.80
2019-03-30T21:18:02.155Z,22.63
2019-03-30T21:20:30.502Z,17.07
2019-03-30T21:23:01.129Z,18.67
2019-03-30T21:25:29.796Z,16.37
2019-03-30T21:27:58.015Z,19.50
2019-03-30T21:30:26.165Z,20.10
2019-03-30T21:32:55.270Z,19.20
2019-03-30T21:35:23.504Z,19.13
2019-03-30T21:37:51.758Z,20.33
2019-03-30T21:40:19.981Z,18.00
2019-03-30T21:42:49.013Z,17.53
2019-03-30T21:45:17.388Z,18.80
2019-03-30T21:47:46.918Z,21.63
2019-03-30T21:50:15.756Z,22.40
2019-03-30T21:52:44.106Z,17.37
2019-03-30T21:55:12.985Z,19.77
2019-03-30T21:57:41.791Z,18.37
2019-03-30T22:00:11.811Z,20.40
2019-03-30T22:02:40.496Z,19.40
2019-03-30T22:05:09.022Z,19.07
2019-03-30T22:07:37.758Z,20.30
2019-03-30T22:10:09.102Z,18.70
2019-03-30T22:12:40.402Z,17.30
2019-03-30T22:15:09.551Z,21.53
2019-03-30T22:17:38.333Z,24.33
2019-03-30T22:20:06.911Z,22.00
2019-03-30T22:22:35.605Z,17.60
2019-03-30T22:25:04.082Z,21.40
2019-03-30T22:27:32.562Z,21.67
2019-03-30T22:30:01.046Z,21.63
2019-03-30T22:32:29.376Z,25.80
2019-03-30T22:34:58.139Z,20.23
2019-03-30T22:37:26.476Z,21.43
2019-03-30T22:39:54.593Z,24.57
2019-03-30T22:42:22.635Z,23.47
2019-03-30T22:44:50.965Z,24.53
2019-03-30T22:47:19.135Z,22.73
2019-03-30T22:49:47.620Z,22.47
2019-03-30T22:52:15.763Z,25.50
2019-03-30T22:54:44.827Z,22.83
2019-03-30T22:57:13.566Z,25.13
2019-03-30T22:59:41.635Z,23.93
2019-03-30T23:02:09.670Z,21.97
2019-03-30T23:04:38.060Z,29.43
2019-03-30T23:07:07.111Z,31.20
2019-03-30T23:09:35.759Z,28.23
2019-03-30T23:12:04.657Z,26.83
2019-03-30T23:14:33.100Z,22.27
2019-03-30T23:17:02.123Z,25.53
2019-03-30T23:19:30.890Z,24.40
2019-03-30T23:21:59.250Z,23.90
2019-03-30T23:24:27.623Z,25.37
2019-03-30T23:26:56.138Z,31.37
2019-03-30T23:29:24.050Z,26.40
2019-03-30T23:31:52.568Z,29.60
2019-03-30T23:34:21.032Z,30.77
2019-03-30T23:36:49.690Z,30.40
2019-03-30T23:39:18.034Z,28.77
2019-03-30T23:41:46.858Z,28.80
2019-03-30T23:44:14.926Z,33.43
2019-03-30T23:46:43.896Z,31.87
2019-03-30T23:49:12.534Z,30.07
2019-03-30T23:51:41.019Z,29.83
2019-03-30T23:54:13.532Z,29.43
2019-03-30T23:56:42.289Z,34.37
2019-03-30T23:59:10.283Z,33.43
